Time;durP1;ratioP1;P1;durP2;ratioP2;P2;SDS_P1;SDS_P2;PMS_P1;PMS_P2;Temp;Humidity;BMP_temperature;BMP_pressure;BME280_temperature;BME280_humidity;BME280_pressure;Samples;Min_cycle;Max_cycle;Signal;HPM_P1;HPM_P2
2023/07/15 00:01:23;;;;;;;19.85;18.58;;;;;;;21.51;52.61;100060.59;4829020;29;97244;-76
2023/07/15 00:03:49;;;;;;;19.95;18.40;;;;;;;21.47;52.47;100054.69;4803845;29;96855;-76
2023/07/15 00:06:16;;;;;;;19.30;17.88;;;;;;;21.50;52.51;100058.06;4801961;29;98939;-75
2023/07/15 00:08:42;;;;;;;19.50;18.02;;;;;;;21.46;52.61;100057.47;4820947;29;98304;-75
2023/07/15 00:11:37;;;;;;;19.75;18.23;;;;;;;21.19;53.26;100050.75;4823967;29;96755;-75
2023/07/15 00:14:23;;;;;;;20.85;19.13;;;;;;;21.30;53.11;100051.69;4815602;29;96755;-76
2023/07/15 00:16:50;;;;;;;20.63;18.92;;;;;;;21.22;53.21;100060.34;4817224;29;97770;-75
2023/07/15 00:19:18;;;;;;;19.63;18.05;;;;;;;21.03;53.96;100075.19;4802360;29;98904;-76
2023/07/15 00:21:45;;;;;;;19.52;16.90;;;;;;;20.77;54.82;100066.63;4802675;29;97073;-75
2023/07/15 00:24:10;;;;;;;18.88;17.48;;;;;;;20.89;54.67;100067.47;4803705;29;96987;-75
2023/07/15 00:26:37;;;;;;;19.80;18.00;;;;;;;20.99;54.10;100065.72;4802392;29;98646;-75
2023/07/15 00:29:04;;;;;;;21.13;19.33;;;;;;;20.95;54.48;100064.28;4815517;29;98618;-75
2023/07/15 00:31:35;;;;;;;21.52;20.02;;;;;;;20.79;54.86;100062.00;4813101;29;96879;-75
2023/07/15 00:34:02;;;;;;;19.50;18.10;;;;;;;20.84;54.75;100050.97;4803205;29;96872;-76
2023/07/15 00:36:31;;;;;;;20.58;18.83;;;;;;;20.93;54.70;100052.06;4824520;29;98575;-75
2023/07/15 00:38:56;;;;;;;20.70;19.20;;;;;;;20.96;54.77;100049.97;4805554;29;98446;-75
2023/07/15 00:41:27;;;;;;;19.48;17.98;;;;;;;21.01;54.76;100041.59;4802683;29;97360;-75
2023/07/15 00:43:58;;;;;;;19.05;17.55;;;;;;;21.01;54.99;100039.78;4786586;29;96834;-75
2023/07/15 00:46:31;;;;;;;19.63;18.13;;;;;;;20.90;55.09;100037.13;4802152;29;99283;-75
2023/07/15 00:49:02;;;;;;;21.52;19.58;;;;;;;20.89;55.22;100032.78;4804262;29;98525;-75
2023/07/15 00:51:29;;;;;;;19.75;18.05;;;;;;;20.90;55.00;100028.28;4804380;29;96813;-75
2023/07/15 00:53:55;;;;;;;20.40;18.90;;;;;;;20.80;55.32;100036.22;4806557;29;96875;-75
2023/07/15 00:56:21;;;;;;;20.33;18.75;;;;;;;20.76;55.66;100032.06;4824363;29;99268;-75
2023/07/15 00:58:48;;;;;;;22.77;21.08;;;;;;;20.75;55.68;100025.06;4803061;29;98272;-75
2023/07/15 01:01:14;;;;;;;20.70;19.02;;;;;;;20.68;55.85;100030.06;4820816;29;97258;-75
2023/07/15 01:03:40;;;;;;;18.98;17.23;;;;;;;20.69;55.87;100025.56;4801593;29;97000;-75
2023/07/15 01:06:09;;;;;;;19.77;18.08;;;;;;;20.67;56.12;100023.00;4804008;29;98961;-75
2023/07/15 01:08:35;;;;;;;22.08;20.17;;;;;;;20.58;56.38;100026.41;4809853;29;98805;-76
2023/07/15 01:11:00;;;;;;;19.42;18.08;;;;;;;20.57;56.35;100022.06;4838311;29;96814;-75
2023/07/15 01:13:26;;;;;;;19.27;17.75;;;;;;;20.54;56.50;100015.16;4832329;29;96904;-75
2023/07/15 01:15:51;;;;;;;19.60;18.15;;;;;;;20.51;56.39;100018.03;4794634;29;100437;-75
2023/07/15 01:18:17;;;;;;;19.33;17.67;;;;;;;20.47;56.75;100007.72;4818336;29;98441;-75
2023/07/15 01:20:42;;;;;;;19.60;18.23;;;;;;;20.43;56.83;100014.28;4800873;29;96872;-73
2023/07/15 01:23:08;;;;;;;19.27;17.80;;;;;;;20.38;57.07;100019.97;4798806;29;96874;-74
2023/07/15 01:25:33;;;;;;;19.98;18.27;;;;;;;20.32;57.11;100023.13;4838175;29;99257;-73
2023/07/15 01:27:59;;;;;;;19.77;18.35;;;;;;;20.19;57.55;100020.59;4817457;29;98707;-75
2023/07/15 01:30:25;;;;;;;19.02;17.35;;;;;;;20.04;57.98;100024.44;4827756;29;97006;-75
2023/07/15 01:32:50;;;;;;;20.15;17.65;;;;;;;20.20;57.73;100016.13;4802402;29;96729;-75
2023/07/15 01:35:16;;;;;;;19.42;17.80;;;;;;;20.10;57.94;100010.66;4815737;29;98611;-75
2023/07/15 01:37:42;;;;;;;20.52;18.75;;;;;;;19.99;58.12;100013.31;4801633;29;98619;-75
2023/07/15 01:40:09;;;;;;;19.30;17.75;;;;;;;20.04;58.17;100014.66;4802169;29;96671;-75
2023/07/15 01:42:35;;;;;;;21.25;19.55;;;;;;;19.98;58.26;100003.63;4800494;29;96890;-75
2023/07/15 01:45:04;;;;;;;19.95;18.20;;;;;;;19.86;58.67;100003.59;4822752;29;97521;-75
2023/07/15 01:47:30;;;;;;;21.50;20.00;;;;;;;19.48;59.72;100006.53;4811934;29;98833;-73
2023/07/15 01:49:55;;;;;;;22.80;21.05;;;;;;;19.48;59.77;100003.03;4821011;29;96629;-75
2023/07/15 01:52:21;;;;;;;21.98;20.27;;;;;;;19.53;59.68;99999.03;4797920;29;96919;-75
2023/07/15 01:54:46;;;;;;;21.50;19.77;;;;;;;19.48;59.74;99995.03;4801717;29;99260;-73
2023/07/15 01:57:12;;;;;;;22.00;20.20;;;;;;;19.21;60.36;100004.16;4809766;29;99914;-73
2023/07/15 01:59:38;;;;;;;23.65;21.42;;;;;;;19.21;60.38;100005.00;4800696;29;96828;-75
2023/07/15 02:02:04;;;;;;;22.42;20.73;;;;;;;19.13;60.88;100006.53;4796093;29;96984;-75
2023/07/15 02:04:30;;;;;;;21.42;19.70;;;;;;;19.07;61.09;100012.31;4810049;29;98050;-75
2023/07/15 02:06:57;;;;;;;20.90;19.30;;;;;;;19.13;60.77;100002.03;4821246;29;100289;-74
2023/07/15 02:09:23;;;;;;;22.05;20.45;;;;;;;19.15;60.67;100004.59;4808059;29;96798;-75
2023/07/15 02:11:49;;;;;;;23.52;21.55;;;;;;;18.99;61.24;100004.88;4824324;29;97301;-75
2023/07/15 02:14:15;;;;;;;21.70;19.98;;;;;;;18.93;61.45;100008.84;4801720;29;98619;-75
2023/07/15 02:16:40;;;;;;;22.00;20.08;;;;;;;18.94;61.54;100007.06;4801259;29;100367;-75
2023/07/15 02:19:06;;;;;;;23.83;22.02;;;;;;;18.71;62.39;99995.41;4813360;29;96746;-75
2023/07/15 02:21:32;;;;;;;22.40;20.60;;;;;;;18.46;62.81;100006.97;4838051;29;96968;-75
2023/07/15 02:23:59;;;;;;;21.75;19.63;;;;;;;18.64;62.53;100002.13;4821859;29;99088;-75
2023/07/15 02:26:25;;;;;;;21.08;19.17;;;;;;;18.64;62.46;100002.13;4801095;29;98571;-72
2023/07/15 02:28:50;;;;;;;21.50;19.58;;;;;;;18.65;62.66;100014.47;4801726;29;96819;-75
2023/07/15 02:31:16;;;;;;;21.63;19.90;;;;;;;18.50;62.80;100008.44;4801278;29;98428;-75
2023/07/15 02:33:41;;;;;;;21.38;19.85;;;;;;;18.54;62.79;100010.75;4800716;29;98647;-75
2023/07/15 02:36:07;;;;;;;20.98;19.25;;;;;;;18.59;62.57;100013.09;4821435;29;98225;-75
2023/07/15 02:38:32;;;;;;;21.23;19.38;;;;;;;18.72;62.22;100007.72;4806478;29;97043;-75
2023/07/15 02:40:58;;;;;;;20.83;19.30;;;;;;;18.64;62.48;100010.94;4792570;29;97419;-74
2023/07/15 02:43:23;;;;;;;20.98;19.42;;;;;;;18.69;62.39;100010.63;4807458;29;97798;-73
2023/07/15 02:45:52;;;;;;;21.98;20.27;;;;;;;18.61;62.60;100015.63;4837725;29;98349;-73
2023/07/15 02:48:21;;;;;;;20.77;19.17;;;;;;;18.47;63.18;100016.63;4838413;29;96801;-74
2023/07/15 02:50:51;;;;;;;20.48;18.65;;;;;;;18.46;63.27;100014.94;4810373;29;97112;-73
2023/07/15 02:53:17;;;;;;;22.27;19.90;;;;;;;18.49;63.13;100012.06;4798824;29;99919;-73
2023/07/15 02:55:43;;;;;;;21.23;19.50;;;;;;;18.30;63.53;100005.41;4800084;29;98380;-73
2023/07/15 02:58:10;;;;;;;20.83;19.27;;;;;;;18.36;63.72;100009.44;4800896;29;96894;-73
2023/07/15 03:00:38;;;;;;;20.35;18.67;;;;;;;18.47;63.41;100012.19;4802515;29;98720;-73
2023/07/15 03:03:04;;;;;;;22.42;20.48;;;;;;;18.70;62.74;100005.19;4811489;29;96725;-73
2023/07/15 03:05:30;;;;;;;21.88;19.90;;;;;;;18.60;63.01;100017.44;4827875;29;98291;-73
2023/07/15 03:07:55;;;;;;;23.23;21.40;;;;;;;18.70;62.88;100022.94;4827946;29;97057;-73
2023/07/15 03:10:21;;;;;;;23.70;21.58;;;;;;;18.68;62.70;100009.78;4811301;29;96819;-73
2023/07/15 03:12:49;;;;;;;20.98;19.58;;;;;;;18.57;63.12;100011.50;4801885;29;99085;-73
2023/07/15 03:15:15;;;;;;;21.33;19.65;;;;;;;18.49;63.46;100010.25;4824586;29;98750;-73
2023/07/15 03:17:41;;;;;;;21.65;19.77;;;;;;;18.51;63.46;100013.66;4824555;29;98161;-73
2023/07/15 03:20:14;;;;;;;21.25;19.85;;;;;;;18.60;63.14;100016.59;4799903;29;97473;-73
2023/07/15 03:22:41;;;;;;;21.88;20.27;;;;;;;18.61;63.18;100007.66;4788701;29;98914;-73
2023/07/15 03:25:07;;;;;;;23.52;21.48;;;;;;;18.53;63.19;100013.56;4810785;29;97548;-73
2023/07/15 03:27:33;;;;;;;22.30;20.60;;;;;;;18.66;63.00;100003.72;4790920;29;97023;-73
2023/07/15 03:29:58;;;;;;;22.38;20.50;;;;;;;18.71;62.99;100003.38;4782440;29;97295;-73
2023/07/15 03:32:24;;;;;;;23.35;21.52;;;;;;;18.64;63.07;99999.47;4781919;29;98078;-73
2023/07/15 03:34:50;;;;;;;21.50;19.80;;;;;;;18.44;63.73;100003.56;4783404;29;98462;-73
2023/07/15 03:37:16;;;;;;;22.80;21.00;;;;;;;18.43;64.18;100007.19;4796943;29;96684;-73
2023/07/15 03:39:41;;;;;;;22.95;20.98;;;;;;;18.38;64.08;100009.31;4799640;29;96888;-74
2023/07/15 03:42:07;;;;;;;24.15;21.67;;;;;;;18.43;64.17;100005.38;4784821;29;98498;-73
2023/07/15 03:44:33;;;;;;;21.92;20.10;;;;;;;18.45;64.05;100008.78;4785150;29;98361;-74
2023/07/15 03:46:58;;;;;;;21.10;19.50;;;;;;;18.59;63.79;100004.25;4814471;29;97134;-73
2023/07/15 03:49:24;;;;;;;20.48;18.88;;;;;;;18.84;62.93;99998.03;4820922;29;97125;-73
2023/07/15 03:51:50;;;;;;;20.65;19.08;;;;;;;18.91;62.79;99999.31;4805196;29;98860;-73
2023/07/15 03:54:15;;;;;;;22.15;20.20;;;;;;;18.58;63.71;100000.75;4801052;29;98273;-73
2023/07/15 03:56:41;;;;;;;21.73;19.80;;;;;;;18.59;63.53;100004.25;4784807;29;96726;-73
2023/07/15 03:59:07;;;;;;;21.17;19.42;;;;;;;18.63;63.58;99997.78;4785342;29;97400;-74
2023/07/15 04:01:34;;;;;;;21.23;19.45;;;;;;;18.78;63.45;99994.03;4784702;29;99320;-74
2023/07/15 04:04:04;;;;;;;21.58;19.67;;;;;;;18.76;63.44;99996.81;4785484;29;97636;-74
2023/07/15 04:06:33;;;;;;;22.95;20.58;;;;;;;18.58;64.05;100002.56;4789914;29;96748;-73
2023/07/15 04:08:58;;;;;;;21.85;20.02;;;;;;;18.78;63.56;100005.50;4811275;29;96941;-73
2023/07/15 04:11:24;;;;;;;21.65;19.77;;;;;;;18.94;63.26;100010.56;4818405;29;98871;-73
2023/07/15 04:13:49;;;;;;;23.02;20.77;;;;;;;18.92;63.38;100008.97;4821649;29;98363;-73
2023/07/15 04:16:15;;;;;;;20.88;18.95;;;;;;;18.68;64.23;100004.47;4795419;29;96735;-73
2023/07/15 04:18:42;;;;;;;22.45;20.63;;;;;;;18.61;64.59;100015.63;4807718;29;96864;-73
2023/07/15 04:21:08;;;;;;;24.17;21.75;;;;;;;18.96;63.80;100015.75;4801418;29;98553;-73
2023/07/15 04:23:34;;;;;;;22.05;19.85;;;;;;;19.07;63.46;99997.19;4839766;29;98340;-74
2023/07/15 04:25:59;;;;;;;21.55;19.85;;;;;;;19.19;63.24;100000.75;4818311;29;96617;-74
2023/07/15 04:28:25;;;;;;;23.45;21.45;;;;;;;19.29;62.89;99998.25;4829464;29;96744;-73
2023/07/15 04:30:50;;;;;;;21.20;19.63;;;;;;;19.07;63.62;99999.00;4817942;29;99517;-73
2023/07/15 04:33:16;;;;;;;23.50;21.40;;;;;;;19.11;63.57;100000.47;4823558;29;98798;-73
2023/07/15 04:35:43;;;;;;;22.13;20.27;;;;;;;19.30;63.14;99998.13;4809671;29;96779;-73
2023/07/15 04:38:10;;;;;;;21.75;20.15;;;;;;;19.48;63.16;99993.22;4793237;29;97283;-73
2023/07/15 04:40:35;;;;;;;22.55;20.70;;;;;;;19.54;62.64;99982.09;4830127;29;98967;-73
2023/07/15 04:43:01;;;;;;;22.88;20.92;;;;;;;19.73;62.29;99988.72;4806773;29;98299;-73
2023/07/15 04:45:27;;;;;;;22.08;20.13;;;;;;;19.66;62.52;99989.19;4801822;29;96741;-73
2023/07/15 04:47:52;;;;;;;22.40;20.27;;;;;;;19.80;62.13;99990.75;4802521;29;96837;-73
2023/07/15 04:50:18;;;;;;;22.08;20.27;;;;;;;19.78;62.29;99994.50;4802390;29;98622;-73
2023/07/15 04:52:43;;;;;;;21.77;20.02;;;;;;;20.05;61.81;99995.03;4802727;29;98732;-73
2023/07/15 04:55:09;;;;;;;22.25;20.40;;;;;;;20.09;61.86;99999.13;4809419;29;97345;-73
2023/07/15 04:57:35;;;;;;;22.38;20.42;;;;;;;20.15;61.90;99999.63;4821655;29;96884;-73
2023/07/15 05:00:00;;;;;;;22.88;20.50;;;;;;;20.36;61.56;99997.91;4798269;29;98205;-73
2023/07/15 05:02:26;;;;;;;23.17;21.20;;;;;;;20.43;61.23;99999.13;4802077;29;98725;-73
2023/07/15 05:04:52;;;;;;;21.95;20.20;;;;;;;20.71;60.68;100008.47;4827749;29;96894;-73
2023/07/15 05:07:17;;;;;;;23.00;20.77;;;;;;;20.91;60.07;100001.47;4803075;29;96976;-74
2023/07/15 05:09:43;;;;;;;23.42;21.20;;;;;;;20.93;59.75;100010.22;4814940;29;97672;-73
2023/07/15 05:12:10;;;;;;;23.67;21.33;;;;;;;21.01;60.25;100007.75;4800171;29;98320;-74
2023/07/15 05:14:36;;;;;;;25.05;22.45;;;;;;;20.97;60.13;100008.13;4805514;29;96687;-74
2023/07/15 05:17:02;;;;;;;23.38;21.30;;;;;;;20.80;60.70;100001.53;4824995;29;96808;-73
2023/07/15 05:19:28;;;;;;;23.55;21.38;;;;;;;20.98;60.57;100008.03;4827178;29;98664;-73
2023/07/15 05:21:53;;;;;;;23.60;21.50;;;;;;;21.13;60.36;100005.06;4801701;29;99142;-73
2023/07/15 05:24:19;;;;;;;23.25;20.98;;;;;;;21.36;59.97;100006.69;4813131;29;97027;-73
2023/07/15 05:26:45;;;;;;;25.10;22.60;;;;;;;21.57;59.09;100011.19;4807260;29;97180;-76
2023/07/15 05:29:10;;;;;;;26.17;22.55;;;;;;;21.62;59.37;100012.50;4819214;29;98858;-76
2023/07/15 05:31:36;;;;;;;22.48;20.33;;;;;;;21.93;58.40;100009.84;4819946;29;98221;-76
2023/07/15 05:34:01;;;;;;;23.38;21.13;;;;;;;22.25;58.04;100011.56;4814783;29;96750;-74
2023/07/15 05:36:27;;;;;;;23.15;21.05;;;;;;;22.50;56.63;100002.25;4814286;29;96864;-76
2023/07/15 05:38:53;;;;;;;23.08;21.13;;;;;;;22.25;57.06;100003.56;4819789;29;98696;-76
2023/07/15 05:41:18;;;;;;;23.33;21.67;;;;;;;22.61;56.72;100007.47;4817492;29;98489;-76
2023/07/15 05:43:44;;;;;;;23.10;21.13;;;;;;;23.01;55.70;100002.09;4820238;29;96771;-76
2023/07/15 05:46:09;;;;;;;22.05;20.05;;;;;;;23.75;54.25;100005.16;4819890;29;96976;-76
2023/07/15 05:48:35;;;;;;;21.52;19.85;;;;;;;24.14;53.33;100014.78;4819738;29;97642;-76
2023/07/15 05:51:00;;;;;;;21.52;19.50;;;;;;;24.41;52.61;100010.44;4813190;29;98624;-76
2023/07/15 05:53:27;;;;;;;23.25;21.45;;;;;;;25.20;51.00;100017.03;4812166;29;96765;-76
2023/07/15 05:55:52;;;;;;;22.58;20.80;;;;;;;25.93;49.77;100008.72;4819048;29;96931;-76
2023/07/15 05:58:18;;;;;;;23.10;21.23;;;;;;;26.68;48.22;100010.78;4808306;29;98398;-76
2023/07/15 06:00:43;;;;;;;20.52;18.85;;;;;;;27.83;44.82;100003.66;4816652;29;98378;-77
2023/07/15 06:03:09;;;;;;;21.77;20.08;;;;;;;29.13;42.23;100001.44;4820671;29;96732;-76
2023/07/15 06:05:35;;;;;;;20.70;19.17;;;;;;;29.63;40.46;99990.06;4807481;29;96874;-76
2023/07/15 06:08:01;;;;;;;20.55;18.88;;;;;;;30.02;39.79;99991.69;4819377;29;98656;-76
2023/07/15 06:10:26;;;;;;;21.55;19.70;;;;;;;31.82;36.46;99988.22;4817833;29;97283;-76
2023/07/15 06:12:52;;;;;;;20.83;19.23;;;;;;;32.18;35.44;99990.78;4809508;29;96792;-77
2023/07/15 06:15:17;;;;;;;20.13;18.50;;;;;;;34.32;32.94;99990.81;4816061;29;96833;-77
2023/07/15 06:17:43;;;;;;;21.58;19.70;;;;;;;33.96;33.23;99994.88;4813479;29;99057;-76
2023/07/15 06:20:09;;;;;;;20.73;18.98;;;;;;;34.49;32.23;99991.19;4819061;29;96735;-76
2023/07/15 06:22:35;;;;;;;19.52;18.33;;;;;;;35.87;30.24;99992.34;4817816;29;98794;-77
2023/07/15 06:25:00;;;;;;;21.52;19.67;;;;;;;34.58;31.54;99999.97;4818273;29;96900;-77
2023/07/15 06:27:26;;;;;;;20.13;18.73;;;;;;;34.84;31.45;99990.81;4817861;29;98776;-77
2023/07/15 06:29:51;;;;;;;19.45;17.95;;;;;;;35.09;31.05;99997.19;4819120;29;98745;-77
2023/07/15 06:32:18;;;;;;;19.90;18.33;;;;;;;36.68;29.39;99992.06;4818785;29;96648;-77
2023/07/15 06:34:43;;;;;;;20.60;19.20;;;;;;;37.52;28.35;99989.34;4819685;29;96815;-77
2023/07/15 06:37:09;;;;;;;20.27;18.70;;;;;;;36.95;28.36;99986.22;4818884;29;98669;-77
2023/07/15 06:39:34;;;;;;;20.27;18.90;;;;;;;38.41;27.77;99986.44;4819003;29;98458;-77
2023/07/15 06:42:00;;;;;;;21.02;19.60;;;;;;;39.11;26.81;99974.31;4819578;29;97011;-77
2023/07/15 06:44:26;;;;;;;20.95;19.45;;;;;;;37.17;27.86;99981.88;4802762;29;96841;-77
2023/07/15 06:46:51;;;;;;;20.27;18.83;;;;;;;35.76;29.65;99977.56;4819213;29;99149;-78
2023/07/15 06:49:17;;;;;;;20.75;19.35;;;;;;;36.32;29.03;99973.78;4819038;29;98689;-78
2023/07/15 06:51:42;;;;;;;20.48;18.88;;;;;;;38.44;27.16;99972.25;4818222;29;96981;-78
2023/07/15 06:54:08;;;;;;;20.58;18.65;;;;;;;36.52;27.95;99965.38;4819503;29;96852;-77
2023/07/15 06:56:33;;;;;;;19.95;18.33;;;;;;;37.38;27.53;99974.19;4818358;29;99256;-77
2023/07/15 06:58:59;;;;;;;19.33;18.02;;;;;;;39.06;26.20;99965.16;4817924;29;98514;-77
2023/07/15 07:01:24;;;;;;;19.23;17.92;;;;;;;39.46;25.47;99970.53;4818123;29;96775;-78
2023/07/15 07:03:51;;;;;;;19.73;18.42;;;;;;;39.26;25.78;99968.25;4818561;29;96825;-77
2023/07/15 07:06:17;;;;;;;20.80;19.13;;;;;;;37.94;27.25;99972.00;4816813;29;98790;-78
2023/07/15 07:08:42;;;;;;;19.48;18.27;;;;;;;36.54;28.18;99973.31;4818626;29;98355;-78
2023/07/15 07:11:08;;;;;;;19.92;18.55;;;;;;;37.36;27.64;99963.47;4808751;29;96707;-78
2023/07/15 07:13:33;;;;;;;20.20;18.23;;;;;;;38.51;26.74;99966.59;4829428;29;96982;-78
2023/07/15 07:15:59;;;;;;;19.55;18.25;;;;;;;37.66;26.69;99968.03;4815484;29;98772;-78
2023/07/15 07:18:25;;;;;;;19.27;17.98;;;;;;;36.30;28.34;99975.91;4829645;29;98451;-78
2023/07/15 07:21:01;;;;;;;19.20;17.67;;;;;;;37.87;27.01;99965.75;4802235;29;96728;-78
2023/07/15 07:23:26;;;;;;;19.45;18.10;;;;;;;37.78;26.87;99963.38;4803709;29;96726;-78
2023/07/15 07:25:52;;;;;;;19.30;18.02;;;;;;;38.24;26.50;99971.78;4802270;29;98756;-78
2023/07/15 07:28:41;;;;;;;18.60;17.17;;;;;;;37.12;27.12;99964.50;4807527;29;98442;-78
2023/07/15 07:31:07;;;;;;;18.85;17.60;;;;;;;36.52;28.08;99961.78;4822473;29;96694;-87
2023/07/15 07:33:32;;;;;;;19.30;18.15;;;;;;;36.10;28.75;99964.41;4821702;29;96965;-86
2023/07/15 07:35:58;;;;;;;18.63;17.42;;;;;;;35.80;28.90;99965.13;4820910;29;98806;-85
2023/07/15 07:38:23;;;;;;;18.17;16.88;;;;;;;36.21;28.70;99958.16;4821379;29;97595;-86
2023/07/15 07:40:49;;;;;;;17.55;16.45;;;;;;;36.30;28.61;99964.16;4821162;29;96725;-86
2023/07/15 07:43:15;;;;;;;17.10;16.10;;;;;;;36.24;28.65;99954.97;4818995;29;96943;-84
2023/07/15 07:45:40;;;;;;;18.73;17.55;;;;;;;38.14;26.46;99960.59;4819447;29;99282;-87
2023/07/15 07:48:06;;;;;;;19.90;18.50;;;;;;;38.32;26.29;99952.25;4826054;29;98936;-87
2023/07/15 07:50:33;;;;;;;19.25;17.88;;;;;;;39.84;25.09;99946.94;4820039;29;96866;-87
2023/07/15 07:52:59;;;;;;;18.95;17.55;;;;;;;39.17;25.68;99951.38;4819904;29;97574;-87
2023/07/15 07:55:24;;;;;;;18.85;17.65;;;;;;;40.75;24.28;99948.31;4817995;29;98641;-86
2023/07/15 07:57:50;;;;;;;18.73;17.50;;;;;;;40.99;23.98;99949.66;4819446;29;98581;-89
2023/07/15 08:00:15;;;;;;;18.25;17.15;;;;;;;41.21;23.54;99941.31;4819954;29;99151;-85
2023/07/15 08:02:41;;;;;;;18.33;17.23;;;;;;;40.47;24.01;99942.78;4819809;29;96968;-89
2023/07/15 08:05:08;;;;;;;19.10;17.70;;;;;;;40.25;24.40;99952.97;4820424;29;98605;-92
2023/07/15 08:07:34;;;;;;;18.80;17.50;;;;;;;39.68;24.71;99937.63;4816779;29;98809;-91
2023/07/15 08:10:00;;;;;;;18.27;16.95;;;;;;;40.53;23.85;99935.44;4827901;29;96787;-92
2023/07/15 08:12:25;;;;;;;18.13;17.02;;;;;;;40.64;23.59;99936.38;4803455;29;96858;-93
2023/07/15 08:14:51;;;;;;;18.30;17.02;;;;;;;41.96;22.89;99933.00;4833121;29;98920;-92
2023/07/15 08:17:17;;;;;;;18.33;17.23;;;;;;;41.90;22.46;99926.66;4831613;29;98459;-92
2023/07/15 08:19:43;;;;;;;18.85;17.55;;;;;;;42.10;22.30;99928.66;4822427;29;97150;-91
2023/07/15 08:22:09;;;;;;;18.40;17.20;;;;;;;41.20;22.94;99934.16;4829504;29;97652;-91
2023/07/15 08:24:35;;;;;;;18.80;17.52;;;;;;;39.78;24.59;99929.53;4821297;29;99061;-92
2023/07/15 08:27:00;;;;;;;18.30;17.15;;;;;;;40.65;23.70;99929.78;4815972;29;98368;-92
2023/07/15 08:29:26;;;;;;;19.00;17.80;;;;;;;40.93;23.23;99928.66;4822551;29;97070;-89
2023/07/15 08:31:52;;;;;;;18.52;17.23;;;;;;;39.97;24.05;99926.47;4815608;29;97408;-90
2023/07/15 08:34:18;;;;;;;19.13;17.42;;;;;;;39.82;24.49;99927.13;4820326;29;99061;-90
2023/07/15 08:36:43;;;;;;;18.60;17.30;;;;;;;39.82;24.32;99927.13;4822769;29;98672;-87
2023/07/15 08:39:09;;;;;;;18.42;17.23;;;;;;;39.33;24.67;99935.16;4812975;29;97188;-87
2023/07/15 08:41:36;;;;;;;17.80;16.60;;;;;;;38.59;25.33;99932.50;4815173;29;98073;-88
2023/07/15 08:44:01;;;;;;;18.40;17.08;;;;;;;39.01;25.08;99926.66;4792220;29;99386;-88
2023/07/15 08:46:28;;;;;;;18.35;17.25;;;;;;;38.40;25.30;99929.97;4819081;29;98431;-87
2023/07/15 08:48:58;;;;;;;18.67;17.48;;;;;;;38.48;25.60;99924.06;4827372;29;96910;-86
2023/07/15 08:51:31;;;;;;;18.48;17.38;;;;;;;36.14;28.06;99927.38;4820555;29;97683;-87
2023/07/15 08:53:57;;;;;;;18.45;17.33;;;;;;;36.47;27.85;99932.41;4803115;29;98030;-87
2023/07/15 08:56:24;;;;;;;19.05;17.65;;;;;;;36.27;27.87;99932.66;4802675;29;98691;-87
2023/07/15 08:58:50;;;;;;;18.08;16.98;;;;;;;36.70;28.26;99920.75;4805497;29;96744;-86
2023/07/15 09:01:15;;;;;;;19.85;18.45;;;;;;;36.18;28.44;99928.59;4836137;29;96863;-84
2023/07/15 09:03:41;;;;;;;19.17;17.98;;;;;;;34.99;29.78;99922.34;4800616;29;98803;-85
2023/07/15 09:06:07;;;;;;;20.48;18.67;;;;;;;34.25;30.34;99935.56;4818179;29;98741;-84
2023/07/15 09:08:33;;;;;;;19.80;18.58;;;;;;;33.85;30.75;99921.22;4818102;29;96856;-85
2023/07/15 09:10:59;;;;;;;20.88;19.08;;;;;;;33.43;31.76;99926.09;4794942;29;96867;-88
2023/07/15 09:13:29;;;;;;;19.67;18.27;;;;;;;33.43;32.01;99918.75;4813976;29;98843;-87
2023/07/15 09:15:56;;;;;;;19.08;17.88;;;;;;;33.53;31.77;99918.34;4818424;29;99254;-85
2023/07/15 09:18:22;;;;;;;20.90;19.25;;;;;;;33.22;32.44;99917.09;4816437;29;97458;-88
2023/07/15 09:20:48;;;;;;;19.63;18.35;;;;;;;33.33;32.37;99915.63;4810703;29;96850;-82
2023/07/15 09:23:14;;;;;;;20.67;19.13;;;;;;;33.18;32.46;99918.56;4817556;29;98743;-85
2023/07/15 09:25:56;;;;;;;19.73;18.42;;;;;;;33.29;32.64;99920.66;4818637;29;97608;-85
2023/07/15 09:28:22;;;;;;;19.92;18.52;;;;;;;32.97;32.77;99922.28;4812085;29;96884;-85
2023/07/15 09:30:47;;;;;;;20.02;18.20;;;;;;;32.50;32.83;99921.38;4818595;29;97326;-84
2023/07/15 09:33:42;;;;;;;18.42;17.30;;;;;;;32.62;32.42;99913.47;4817288;29;99649;-85
2023/07/15 09:36:09;;;;;;;20.50;18.70;;;;;;;32.31;32.52;99906.66;4819766;29;98965;-86
2023/07/15 09:38:36;;;;;;;19.73;18.17;;;;;;;32.39;32.69;99909.19;4822456;29;96827;-84
2023/07/15 09:41:02;;;;;;;19.95;18.52;;;;;;;32.46;32.18;99909.22;4817405;29;96795;-85
2023/07/15 09:43:48;;;;;;;19.27;17.98;;;;;;;32.61;32.76;99900.91;4820246;29;99102;-85
2023/07/15 09:46:18;;;;;;;19.40;18.10;;;;;;;32.50;32.60;99915.09;4821567;29;98694;-86
2023/07/15 09:48:45;;;;;;;17.83;16.63;;;;;;;32.46;32.44;99901.06;4820653;29;97128;-86
2023/07/15 09:51:12;;;;;;;19.88;18.38;;;;;;;32.48;32.55;99904.44;4815381;29;97165;-86
2023/07/15 09:53:43;;;;;;;19.80;18.27;;;;;;;32.41;32.31;99901.69;4801387;29;99036;-86
2023/07/15 09:56:10;;;;;;;20.02;18.48;;;;;;;32.40;32.36;99910.84;4817050;29;98470;-86
2023/07/15 09:58:37;;;;;;;20.70;19.05;;;;;;;32.44;32.47;99908.59;4820346;29;96848;-86
2023/07/15 10:01:04;;;;;;;19.50;18.15;;;;;;;32.42;32.26;99906.06;4813208;29;96869;-86
2023/07/15 10:03:43;;;;;;;19.88;18.48;;;;;;;32.27;32.40;99910.81;4820359;29;99054;-88
2023/07/15 10:06:10;;;;;;;19.58;18.25;;;;;;;32.28;32.61;99909.78;4819359;29;98875;-87
2023/07/15 10:08:36;;;;;;;19.27;18.08;;;;;;;32.22;33.06;99895.13;4820652;29;97217;-88
2023/07/15 10:11:02;;;;;;;20.05;18.75;;;;;;;32.20;32.31;99885.50;4816062;29;96860;-86
2023/07/15 10:13:28;;;;;;;20.67;19.00;;;;;;;32.04;32.70;99889.44;4801606;29;98685;-87
2023/07/15 10:15:54;;;;;;;20.80;18.98;;;;;;;32.00;33.04;99894.44;4784719;29;98494;-87
2023/07/15 10:18:20;;;;;;;21.02;19.35;;;;;;;31.88;32.92;99887.84;4784290;29;96741;-85
2023/07/15 10:20:56;;;;;;;21.75;19.95;;;;;;;32.06;33.09;99890.06;4816698;29;96917;-86
2023/07/15 10:23:26;;;;;;;21.00;19.55;;;;;;;32.09;32.77;99889.66;4821778;29;98911;-86
2023/07/15 10:26:05;;;;;;;21.17;19.42;;;;;;;31.99;32.65;99890.03;4814239;29;98450;-86
2023/07/15 10:28:41;;;;;;;20.25;18.65;;;;;;;31.84;32.98;99893.91;4813495;29;97186;-86
2023/07/15 10:31:13;;;;;;;21.58;20.17;;;;;;;31.87;32.46;99899.75;4819096;29;96863;-86
2023/07/15 10:33:59;;;;;;;20.50;19.10;;;;;;;31.89;32.15;99894.13;4816580;29;99055;-85
2023/07/15 10:36:47;;;;;;;21.15;19.52;;;;;;;31.90;32.59;99887.66;4818329;29;98705;-86
2023/07/15 10:39:19;;;;;;;20.27;18.67;;;;;;;31.87;31.78;99885.34;4824577;29;96982;-86
2023/07/15 10:41:46;;;;;;;19.38;18.20;;;;;;;31.91;30.25;99892.06;4812658;29;96812;-83
2023/07/15 10:44:23;;;;;;;19.55;18.27;;;;;;;31.87;29.94;99882.63;4816143;29;99136;-84
2023/07/15 10:47:00;;;;;;;20.20;18.80;;;;;;;31.76;30.29;99876.72;4805204;29;98817;-85
2023/07/15 10:49:26;;;;;;;18.98;17.88;;;;;;;31.77;32.00;99891.16;4816632;29;97047;-86
2023/07/15 10:51:54;;;;;;;19.60;18.30;;;;;;;31.63;31.70;99882.09;4800577;29;96846;-80
2023/07/15 10:54:29;;;;;;;20.65;19.25;;;;;;;31.63;29.55;99876.69;4821441;29;98992;-88
2023/07/15 10:56:55;;;;;;;18.08;16.98;;;;;;;31.54;29.17;99881.41;4816263;29;99221;-87
2023/07/15 10:59:24;;;;;;;16.00;14.98;;;;;;;31.49;30.12;99877.63;4829865;29;96779;-85
2023/07/15 11:01:50;;;;;;;23.00;21.58;;;;;;;31.54;30.64;99886.00;4802315;29;97846;-84
2023/07/15 11:04:21;;;;;;;18.75;17.60;;;;;;;31.52;27.22;99871.81;4790851;29;98778;-85
2023/07/15 11:06:47;;;;;;;19.13;17.70;;;;;;;31.54;26.72;99875.16;4807959;29;98571;-85
2023/07/15 11:09:21;;;;;;;18.48;17.35;;;;;;;31.52;26.86;99878.06;4810545;29;97140;-84
2023/07/15 11:11:48;;;;;;;18.35;17.25;;;;;;;31.62;27.92;99877.72;4809748;29;97316;-84
2023/07/15 11:14:28;;;;;;;21.48;20.20;;;;;;;31.59;28.48;99875.38;4807194;29;99009;-84